createdAt,value
2023-02-03T00:00:36.499Z,99.90
2023-02-03T00:03:03.166Z,99.90
2023-02-03T00:05:30.995Z,1.00
2023-02-03T00:07:57.515Z,1.00
2023-02-03T00:10:24.306Z,99.90
2023-02-03T00:12:56.203Z,99.90
2023-02-03T00:15:23.345Z,1.00
2023-02-03T00:17:49.914Z,99.90
2023-02-03T00:20:16.450Z,99.90
2023-02-03T00:22:42.976Z,99.90
2023-02-03T00:25:09.475Z,99.90
2023-02-03T00:27:36.092Z,1.00
2023-02-03T00:30:03.221Z,1.00
2023-02-03T00:32:29.854Z,1.00
2023-02-03T00:34:56.549Z,1.00
2023-02-03T00:37:23.190Z,1.00
2023-02-03T00:39:50.105Z,1.00
2023-02-03T00:42:16.939Z,1.00
2023-02-03T00:44:43.419Z,1.00
2023-02-03T00:47:09.949Z,1.00
2023-02-03T00:49:36.623Z,1.00
2023-02-03T00:52:03.169Z,1.00
2023-02-03T00:54:31.619Z,1.00
2023-02-03T00:56:59.233Z,1.00
2023-02-03T00:59:25.788Z,1.00
2023-02-03T01:01:52.396Z,1.00
2023-02-03T01:04:19.719Z,1.00
2023-02-03T01:06:46.247Z,11.00
2023-02-03T01:09:12.777Z,50.40
2023-02-03T01:11:39.304Z,99.90
2023-02-03T01:14:05.845Z,99.90
2023-02-03T01:16:36.181Z,27.30
2023-02-03T01:19:02.867Z,1.00
2023-02-03T01:21:29.415Z,1.00
2023-02-03T01:23:56.097Z,99.90
2023-02-03T01:26:23.350Z,99.90
2023-02-03T01:28:53.822Z,97.10
2023-02-03T01:31:22.150Z,1.00
2023-02-03T01:33:48.863Z,1.00
2023-02-03T01:36:16.235Z,59.80
2023-02-03T01:38:42.757Z,1.00
2023-02-03T01:41:10.967Z,18.30
2023-02-03T01:43:39.156Z,99.90
2023-02-03T01:46:24.536Z,99.90
2023-02-03T01:48:52.458Z,1.00
2023-02-03T01:51:19.696Z,65.30
2023-02-03T01:53:46.331Z,99.90
2023-02-03T01:56:12.949Z,99.90
2023-02-03T01:58:41.254Z,99.90
2023-02-03T02:01:07.996Z,99.90
2023-02-03T02:03:38.225Z,1.00
2023-02-03T02:06:05.986Z,1.00
2023-02-03T02:08:32.843Z,1.00
2023-02-03T02:11:00.284Z,1.00
2023-02-03T02:13:28.634Z,1.00
2023-02-03T02:16:13.890Z,1.00
2023-02-03T02:18:40.397Z,1.00
2023-02-03T02:21:15.667Z,1.00
2023-02-03T02:23:55.265Z,99.90
2023-02-03T02:26:40.051Z,99.90
2023-02-03T02:29:25.789Z,99.90
2023-02-03T02:32:15.293Z,99.90
2023-02-03T02:35:00.543Z,1.00
2023-02-03T02:37:38.503Z,1.00
2023-02-03T02:40:19.727Z,1.00
2023-02-03T02:43:00.653Z,92.70
2023-02-03T02:45:59.829Z,23.20
2023-02-03T02:48:26.355Z,99.90
2023-02-03T02:50:53.818Z,99.90
2023-02-03T02:53:21.528Z,97.60
2023-02-03T02:55:48.234Z,93.20
2023-02-03T02:58:16.573Z,99.90
2023-02-03T03:00:43.127Z,99.90
2023-02-03T03:03:13.676Z,99.90
2023-02-03T03:05:41.439Z,6.70
2023-02-03T03:08:08.373Z,99.90
2023-02-03T03:10:35.333Z,99.90
2023-02-03T03:13:04.848Z,99.90
2023-02-03T03:15:32.164Z,1.00
2023-02-03T03:18:05.787Z,21.70
2023-02-03T03:20:33.285Z,99.90
2023-02-03T03:23:03.269Z,1.00
2023-02-03T03:25:50.149Z,99.90
2023-02-03T03:28:19.220Z,99.90
2023-02-03T03:30:45.879Z,99.90
2023-02-03T03:33:12.457Z,99.90
2023-02-03T03:35:43.267Z,1.00
2023-02-03T03:38:14.875Z,1.00
2023-02-03T03:40:44.683Z,1.00
2023-02-03T03:43:15.825Z,1.00
2023-02-03T03:46:02.870Z,1.00
2023-02-03T03:48:36.899Z,1.00
2023-02-03T03:51:06.657Z,1.00
2023-02-03T03:53:35.304Z,1.00
2023-02-03T03:56:03.491Z,1.00
2023-02-03T03:58:31.093Z,1.00
2023-02-03T04:00:59.732Z,1.00
2023-02-03T04:03:31.091Z,1.00
2023-02-03T04:05:57.703Z,1.00
2023-02-03T04:08:24.312Z,1.00
2023-02-03T04:10:50.880Z,1.00
2023-02-03T04:13:20.213Z,1.00
2023-02-03T04:15:46.842Z,1.00
2023-02-03T04:18:14.249Z,1.00
2023-02-03T04:20:40.842Z,1.00
2023-02-03T04:23:07.568Z,1.00
2023-02-03T04:25:34.314Z,99.90
2023-02-03T04:28:01.036Z,99.90
2023-02-03T04:30:28.072Z,99.90
2023-02-03T04:32:54.763Z,99.90
2023-02-03T04:35:21.289Z,99.90
2023-02-03T04:37:47.803Z,99.90
2023-02-03T04:40:14.498Z,99.90
2023-02-03T04:42:41.425Z,99.90
2023-02-03T04:45:09.542Z,99.90
2023-02-03T04:47:36.497Z,99.90
2023-02-03T04:50:03.335Z,99.90
2023-02-03T04:52:29.871Z,99.90
2023-02-03T04:54:56.476Z,99.90
2023-02-03T04:57:23.052Z,99.90
2023-02-03T04:59:49.664Z,99.90
2023-02-03T05:02:16.156Z,99.90
2023-02-03T05:04:42.843Z,99.90
2023-02-03T05:07:09.572Z,99.90
2023-02-03T05:09:36.118Z,64.90
2023-02-03T05:12:02.677Z,46.40
2023-02-03T05:14:29.228Z,25.80
2023-02-03T05:16:55.827Z,31.10
2023-02-03T05:19:22.384Z,36.00
2023-02-03T05:21:48.889Z,70.90
2023-02-03T05:24:15.663Z,99.90
2023-02-03T05:26:42.170Z,58.20
2023-02-03T05:29:10.084Z,91.10
2023-02-03T05:31:36.608Z,99.90
2023-02-03T05:34:03.260Z,99.90
2023-02-03T05:36:29.781Z,99.90
2023-02-03T05:38:56.340Z,99.90
2023-02-03T05:41:41.806Z,30.40
2023-02-03T05:44:08.302Z,7.50
2023-02-03T05:46:34.816Z,5.20
2023-02-03T05:49:01.305Z,7.90
2023-02-03T05:51:28.356Z,64.20
2023-02-03T05:53:54.852Z,74.20
2023-02-03T05:56:21.590Z,46.70
2023-02-03T05:58:48.103Z,49.30
2023-02-03T06:01:14.626Z,65.40
2023-02-03T06:03:41.805Z,99.90
2023-02-03T06:06:09.279Z,52.80
2023-02-03T06:08:35.798Z,30.00
2023-02-03T06:11:02.378Z,25.20
2023-02-03T06:13:28.893Z,1.00
2023-02-03T06:15:55.521Z,1.00
2023-02-03T06:18:22.095Z,5.70
2023-02-03T06:20:48.694Z,2.30
2023-02-03T06:23:17.118Z,1.00
2023-02-03T06:25:43.761Z,20.30
2023-02-03T06:28:10.589Z,48.00
2023-02-03T06:30:37.273Z,8.10
2023-02-03T06:33:03.908Z,1.00
2023-02-03T06:35:30.540Z,1.00
2023-02-03T06:37:57.053Z,1.00
2023-02-03T06:40:23.706Z,1.00
2023-02-03T06:42:51.095Z,1.00
2023-02-03T06:45:18.052Z,1.00
2023-02-03T06:47:45.273Z,1.00
2023-02-03T06:50:13.418Z,1.30
2023-02-03T06:52:39.958Z,1.00
2023-02-03T06:55:06.862Z,1.00
2023-02-03T06:57:33.427Z,1.00
2023-02-03T07:00:00.101Z,1.00
2023-02-03T07:02:26.700Z,1.00
2023-02-03T07:04:53.234Z,1.00
2023-02-03T07:07:19.722Z,1.00
2023-02-03T07:09:46.243Z,1.00
2023-02-03T07:12:12.854Z,1.00
2023-02-03T07:14:39.430Z,1.00
2023-02-03T07:17:07.189Z,1.00
2023-02-03T07:19:33.799Z,1.00
2023-02-03T07:22:00.319Z,1.00
2023-02-03T07:24:26.869Z,1.00
2023-02-03T07:26:53.431Z,1.00
2023-02-03T07:29:19.982Z,1.00
2023-02-03T07:31:46.663Z,1.00
2023-02-03T07:34:13.248Z,1.00
2023-02-03T07:36:39.849Z,1.00
2023-02-03T07:39:06.407Z,1.00
2023-02-03T07:41:32.943Z,1.00
2023-02-03T07:43:59.464Z,1.00
2023-02-03T07:46:26.030Z,1.00
2023-02-03T07:48:52.557Z,1.00
2023-02-03T07:51:19.107Z,99.90
2023-02-03T07:53:46.041Z,1.00
2023-02-03T07:56:12.638Z,1.00
2023-02-03T07:58:39.234Z,1.00
2023-02-03T08:01:13.180Z,1.00
2023-02-03T08:03:40.104Z,1.00
2023-02-03T08:06:06.783Z,99.90
2023-02-03T08:08:33.420Z,99.90
2023-02-03T08:10:59.927Z,99.90
2023-02-03T08:13:26.559Z,99.90
2023-02-03T08:15:53.171Z,99.90
2023-02-03T08:18:19.878Z,99.90
2023-02-03T08:20:47.386Z,99.90
2023-02-03T08:23:13.972Z,99.90
2023-02-03T08:25:40.497Z,99.90
2023-02-03T08:28:07.085Z,99.90
2023-02-03T08:30:33.791Z,99.90
2023-02-03T08:33:00.321Z,99.90
2023-02-03T08:35:26.876Z,99.90
2023-02-03T08:37:53.414Z,99.90
2023-02-03T08:40:19.946Z,99.90
2023-02-03T08:42:46.534Z,99.90
2023-02-03T08:45:13.068Z,99.90
2023-02-03T08:47:39.752Z,99.90
2023-02-03T08:50:07.127Z,99.90
2023-02-03T08:52:33.657Z,99.90
2023-02-03T08:55:00.164Z,99.90
2023-02-03T08:57:26.670Z,99.90
2023-02-03T08:59:53.250Z,99.90
2023-02-03T09:02:19.825Z,99.90
2023-02-03T09:04:47.437Z,99.90
2023-02-03T09:07:14.085Z,99.90
2023-02-03T09:09:40.669Z,99.90
2023-02-03T09:12:07.462Z,99.90
2023-02-03T09:14:34.870Z,99.90
2023-02-03T09:17:03.163Z,99.90
2023-02-03T09:19:29.956Z,99.90
2023-02-03T09:21:57.315Z,99.90
2023-02-03T09:24:24.644Z,99.90
2023-02-03T09:26:51.497Z,99.90
2023-02-03T09:29:18.112Z,99.90
2023-02-03T09:31:46.908Z,99.90
2023-02-03T09:34:13.477Z,99.90
2023-02-03T09:36:41.324Z,99.90
2023-02-03T09:39:09.402Z,99.90
2023-02-03T09:41:54.283Z,99.90
2023-02-03T09:44:23.875Z,99.90
2023-02-03T09:46:54.111Z,99.90
2023-02-03T09:49:37.927Z,99.90
2023-02-03T09:52:23.470Z,99.90
2023-02-03T09:54:53.296Z,99.90
2023-02-03T09:57:22.816Z,99.90
2023-02-03T09:59:50.305Z,99.90
2023-02-03T10:02:25.980Z,99.90
2023-02-03T10:04:56.147Z,99.90
2023-02-03T10:07:37.860Z,99.90
2023-02-03T10:10:07.561Z,99.90
2023-02-03T10:12:49.284Z,99.90
2023-02-03T10:15:28.103Z,99.90
2023-02-03T10:17:56.565Z,99.90
2023-02-03T10:20:25.949Z,99.90
2023-02-03T10:22:54.911Z,99.90
2023-02-03T10:25:27.904Z,99.90
2023-02-03T10:27:55.988Z,99.90
2023-02-03T10:30:24.278Z,99.90
2023-02-03T10:33:23.186Z,99.90
2023-02-03T10:35:51.445Z,99.90
2023-02-03T10:38:24.129Z,99.90
2023-02-03T10:40:50.696Z,99.90
2023-02-03T10:43:36.229Z,99.90
2023-02-03T10:46:02.833Z,99.90
2023-02-03T10:48:29.897Z,99.90
2023-02-03T10:50:57.316Z,99.90
2023-02-03T10:53:25.642Z,99.90
2023-02-03T10:56:00.804Z,99.90
2023-02-03T10:58:28.279Z,99.90
2023-02-03T11:00:56.806Z,99.90
2023-02-03T11:03:25.440Z,99.90
2023-02-03T11:06:04.097Z,1.00
2023-02-03T11:08:31.625Z,1.00
2023-02-03T11:11:06.113Z,1.00
2023-02-03T11:13:32.703Z,1.00
2023-02-03T11:16:16.893Z,1.00
2023-02-03T11:19:02.768Z,1.00
2023-02-03T11:21:33.670Z,1.00
2023-02-03T11:24:00.315Z,1.00
2023-02-03T11:26:29.254Z,1.00
2023-02-03T11:28:57.117Z,1.00
2023-02-03T11:31:25.526Z,1.00
2023-02-03T11:33:54.188Z,1.00
2023-02-03T11:36:20.810Z,1.00
2023-02-03T11:38:47.436Z,1.00
2023-02-03T11:41:18.307Z,1.00
2023-02-03T11:43:45.419Z,1.00
2023-02-03T11:46:12.631Z,1.00
2023-02-03T11:48:45.215Z,1.00
2023-02-03T11:51:11.684Z,1.00
2023-02-03T11:53:57.864Z,99.90
2023-02-03T11:56:43.097Z,99.90
2023-02-03T11:59:29.949Z,99.90
2023-02-03T12:01:59.503Z,99.90
2023-02-03T12:04:38.008Z,1.00
2023-02-03T12:07:07.316Z,1.00
2023-02-03T12:09:43.451Z,1.00
2023-02-03T12:12:23.423Z,1.00
2023-02-03T12:15:08.755Z,1.00
2023-02-03T12:17:50.284Z,99.90
2023-02-03T12:20:35.735Z,99.90
2023-02-03T12:23:23.697Z,1.00
2023-02-03T12:25:53.425Z,1.00
2023-02-03T12:28:33.180Z,99.90
2023-02-03T12:31:04.327Z,99.90
2023-02-03T12:33:33.895Z,99.90
2023-02-03T12:36:11.701Z,1.00
2023-02-03T12:38:42.326Z,1.70
2023-02-03T12:41:12.907Z,99.90
2023-02-03T12:43:42.541Z,76.70
2023-02-03T12:46:20.994Z,1.00
2023-02-03T12:49:10.670Z,1.00
2023-02-03T12:51:56.632Z,1.00
2023-02-03T12:54:40.624Z,99.90
2023-02-03T12:57:29.761Z,1.00
2023-02-03T13:00:04.140Z,1.00
2023-02-03T13:02:34.969Z,99.90
2023-02-03T13:05:04.994Z,99.90
2023-02-03T13:07:43.826Z,99.90
2023-02-03T13:10:23.163Z,99.90
2023-02-03T13:12:51.671Z,1.00
2023-02-03T13:15:18.166Z,1.00
2023-02-03T13:17:44.675Z,1.00
2023-02-03T13:20:17.107Z,1.00
2023-02-03T13:22:43.723Z,1.00
2023-02-03T13:25:19.349Z,1.00
2023-02-03T13:27:49.866Z,99.90
2023-02-03T13:30:35.569Z,99.90
2023-02-03T13:33:05.236Z,99.90
2023-02-03T13:35:40.900Z,99.90
2023-02-03T13:38:16.875Z,99.90
2023-02-03T13:40:49.298Z,1.00
2023-02-03T13:43:35.845Z,1.00
2023-02-03T13:46:07.324Z,1.00
2023-02-03T13:48:35.302Z,99.90
2023-02-03T13:51:22.079Z,1.00
2023-02-03T13:53:49.500Z,1.00
2023-02-03T13:56:26.210Z,1.00
2023-02-03T13:59:00.773Z,1.00
2023-02-03T14:01:33.816Z,1.00
2023-02-03T14:04:01.201Z,1.00
2023-02-03T14:06:40.137Z,1.00
2023-02-03T14:09:42.335Z,1.00
2023-02-03T14:12:14.714Z,99.90
2023-02-03T14:14:45.516Z,1.00
2023-02-03T14:17:30.628Z,1.00
2023-02-03T14:19:57.193Z,99.90
2023-02-03T14:22:23.863Z,99.90
2023-02-03T14:24:50.687Z,1.00
2023-02-03T14:27:18.611Z,1.00
2023-02-03T14:29:45.362Z,1.00
2023-02-03T14:32:12.744Z,1.00
2023-02-03T14:34:43.143Z,1.00
2023-02-03T14:37:27.179Z,1.00
2023-02-03T14:40:12.573Z,1.00
2023-02-03T14:42:39.207Z,1.00
2023-02-03T14:45:05.706Z,1.00
2023-02-03T14:47:46.405Z,1.00
2023-02-03T14:50:26.273Z,1.00
2023-02-03T14:53:14.525Z,1.00
2023-02-03T14:55:55.657Z,99.90
2023-02-03T14:58:34.187Z,1.00
2023-02-03T15:01:03.148Z,99.90
2023-02-03T15:03:31.219Z,99.90
2023-02-03T15:05:59.566Z,99.90
2023-02-03T15:08:33.547Z,99.90
2023-02-03T15:11:00.430Z,99.90
2023-02-03T15:13:28.087Z,99.90
2023-02-03T15:15:59.405Z,99.90
2023-02-03T15:18:29.965Z,99.90
2023-02-03T15:20:56.740Z,99.90
2023-02-03T15:23:24.775Z,99.90
2023-02-03T15:25:58.780Z,99.90
2023-02-03T15:28:26.243Z,99.90
2023-02-03T15:31:13.389Z,99.90
2023-02-03T15:33:44.179Z,99.90
2023-02-03T15:36:17.150Z,99.90
2023-02-03T15:38:46.726Z,99.90
2023-02-03T15:41:18.789Z,99.90
2023-02-03T15:43:46.866Z,99.90
2023-02-03T15:46:19.193Z,99.90
2023-02-03T15:48:51.475Z,99.90
2023-02-03T15:51:28.198Z,99.90
2023-02-03T15:53:58.279Z,99.90
2023-02-03T15:56:35.154Z,99.90
2023-02-03T15:59:01.869Z,99.90
2023-02-03T16:01:28.598Z,99.90
2023-02-03T16:03:56.241Z,99.90
2023-02-03T16:06:25.324Z,99.90
2023-02-03T16:08:52.611Z,99.90
2023-02-03T16:11:24.422Z,99.90
2023-02-03T16:13:51.332Z,99.90
2023-02-03T16:16:22.290Z,99.90
2023-02-03T16:18:53.466Z,99.90
2023-02-03T16:21:28.344Z,99.90
2023-02-03T16:23:54.881Z,99.90
2023-02-03T16:26:23.116Z,99.90
2023-02-03T16:29:27.544Z,99.90
2023-02-03T16:32:13.209Z,99.90
2023-02-03T16:34:58.639Z,99.90
2023-02-03T16:37:45.954Z,99.90
2023-02-03T16:40:32.533Z,99.90
2023-02-03T16:43:17.588Z,99.90
2023-02-03T16:46:02.807Z,99.90
2023-02-03T16:48:47.788Z,99.90
2023-02-03T16:51:15.964Z,99.90
2023-02-03T16:53:44.289Z,99.90
2023-02-03T16:56:11.483Z,99.90
2023-02-03T16:58:38.010Z,99.90
2023-02-03T17:01:05.701Z,99.90
2023-02-03T17:03:34.065Z,99.90
2023-02-03T17:06:08.448Z,99.90
2023-02-03T17:08:35.531Z,99.90
2023-02-03T17:11:06.965Z,99.90
2023-02-03T17:13:33.807Z,99.90
2023-02-03T17:16:00.755Z,99.90
2023-02-03T17:18:27.442Z,99.90
2023-02-03T17:20:53.990Z,99.90
2023-02-03T17:23:20.567Z,99.90
2023-02-03T17:25:48.652Z,99.90
2023-02-03T17:28:15.338Z,99.90
2023-02-03T17:30:42.107Z,99.90
2023-02-03T17:33:12.386Z,99.90
2023-02-03T17:35:42.685Z,99.90
2023-02-03T17:38:10.151Z,99.90
2023-02-03T17:54:24.654Z,99.90
2023-02-03T17:56:51.344Z,99.90
2023-02-03T17:59:17.891Z,99.90
2023-02-03T18:01:46.795Z,99.90
2023-02-03T18:04:13.399Z,99.90
2023-02-03T18:06:40.129Z,99.90
2023-02-03T18:09:08.110Z,99.90
2023-02-03T18:11:34.999Z,99.90
2023-02-03T18:14:01.536Z,99.90
2023-02-03T18:16:29.391Z,99.90
2023-02-03T18:18:56.156Z,99.90
2023-02-03T18:21:23.415Z,99.90
2023-02-03T18:23:51.282Z,99.90
2023-02-03T18:26:18.772Z,99.90
2023-02-03T18:28:45.518Z,99.90
2023-02-03T18:31:14.005Z,99.90
2023-02-03T18:33:40.991Z,99.90
2023-02-03T18:36:07.810Z,99.90
2023-02-03T18:38:34.996Z,99.90
2023-02-03T18:41:21.082Z,99.90
2023-02-03T18:43:49.333Z,99.90
2023-02-03T18:46:17.879Z,99.90
2023-02-03T18:48:48.691Z,99.90
2023-02-03T18:51:18.400Z,99.90
2023-02-03T18:53:47.927Z,99.90
2023-02-03T18:56:20.524Z,99.90
2023-02-03T18:58:47.326Z,99.90
2023-02-03T19:01:23.877Z,99.90
2023-02-03T19:03:50.929Z,99.90
2023-02-03T19:06:18.019Z,99.90
2023-02-03T19:08:44.650Z,99.90
2023-02-03T19:11:11.965Z,99.90
2023-02-03T19:13:38.640Z,99.90
2023-02-03T19:16:05.381Z,99.90
2023-02-03T19:18:32.904Z,99.90
2023-02-03T19:20:59.519Z,99.90
2023-02-03T19:23:26.609Z,99.90
2023-02-03T19:25:53.204Z,99.90
2023-02-03T19:28:29.896Z,99.90
2023-02-03T19:31:08.356Z,99.90
2023-02-03T19:33:35.878Z,99.90
2023-02-03T19:36:02.780Z,99.90
2023-02-03T19:38:29.413Z,99.90
2023-02-03T19:40:56.035Z,99.90
2023-02-03T19:43:24.681Z,99.90
2023-02-03T19:45:51.615Z,99.90
2023-02-03T19:48:18.603Z,99.90
2023-02-03T19:50:46.710Z,99.90
2023-02-03T19:53:13.702Z,99.90
2023-02-03T19:55:42.034Z,99.90
2023-02-03T19:58:08.910Z,99.90
2023-02-03T20:00:35.486Z,99.90
2023-02-03T20:03:02.293Z,99.90
2023-02-03T20:05:29.752Z,99.90
2023-02-03T20:07:56.433Z,99.90
2023-02-03T20:10:26.207Z,99.90
2023-02-03T20:12:53.627Z,99.90
2023-02-03T20:15:20.294Z,99.90
2023-02-03T20:17:46.960Z,99.90
2023-02-03T20:20:13.463Z,99.90
2023-02-03T20:22:39.996Z,99.90
2023-02-03T20:25:06.718Z,99.90
2023-02-03T20:27:33.310Z,99.90
2023-02-03T20:29:59.850Z,99.90
2023-02-03T20:32:26.377Z,99.90
2023-02-03T20:34:52.973Z,99.90
2023-02-03T20:37:19.517Z,99.90
2023-02-03T20:39:46.064Z,99.90
2023-02-03T20:42:15.046Z,99.90
2023-02-03T20:44:42.392Z,99.90
2023-02-03T20:47:10.827Z,99.90
2023-02-03T20:49:37.455Z,99.90
2023-02-03T20:52:08.592Z,99.90
2023-02-03T20:54:35.281Z,99.90
2023-02-03T20:57:01.853Z,99.90
2023-02-03T20:59:28.406Z,99.90
2023-02-03T21:01:55.244Z,99.90
2023-02-03T21:04:40.690Z,99.90
2023-02-03T21:07:12.434Z,99.90
2023-02-03T21:09:39.019Z,99.90
2023-02-03T21:12:15.080Z,99.90
2023-02-03T21:14:42.784Z,99.90
2023-02-03T21:17:23.614Z,99.90
2023-02-03T21:19:50.628Z,99.90
2023-02-03T21:22:24.812Z,99.90
2023-02-03T21:24:52.581Z,99.90
2023-02-03T21:27:26.485Z,99.90
2023-02-03T21:29:57.452Z,99.90
2023-02-03T21:32:24.938Z,99.90
2023-02-03T21:34:51.487Z,99.90
2023-02-03T21:37:21.112Z,99.90
2023-02-03T21:39:48.226Z,99.90
2023-02-03T21:42:41.171Z,99.90
2023-02-03T21:45:32.857Z,99.90
2023-02-03T21:48:03.569Z,99.90
2023-02-03T21:50:36.937Z,99.90
2023-02-03T21:53:10.249Z,99.90
2023-02-03T21:55:37.375Z,99.90
2023-02-03T21:58:09.963Z,99.90
2023-02-03T22:00:38.994Z,99.90
2023-02-03T22:03:08.338Z,99.90
2023-02-03T22:05:35.884Z,99.90
2023-02-03T22:08:06.476Z,99.90
2023-02-03T22:10:33.052Z,99.90
2023-02-03T22:12:59.556Z,99.90
2023-02-03T22:15:26.113Z,99.90
2023-02-03T22:17:52.602Z,99.90
2023-02-03T22:20:19.211Z,99.90
2023-02-03T22:22:45.725Z,99.90
2023-02-03T22:25:12.366Z,99.90
2023-02-03T22:27:40.380Z,99.90
2023-02-03T22:30:07.233Z,99.90
2023-02-03T22:32:33.884Z,99.90
2023-02-03T22:35:00.422Z,99.90
2023-02-03T22:37:28.179Z,99.90
2023-02-03T22:39:54.871Z,99.90
2023-02-03T22:42:22.290Z,99.90
2023-02-03T22:44:48.837Z,99.90
2023-02-03T22:47:15.342Z,99.90
2023-02-03T22:49:42.261Z,99.90
2023-02-03T22:52:16.632Z,99.90
2023-02-03T22:54:43.153Z,99.90
2023-02-03T22:57:09.735Z,99.90
2023-02-03T22:59:36.414Z,99.90
2023-02-03T23:02:02.985Z,99.90
2023-02-03T23:04:29.534Z,99.90
2023-02-03T23:06:56.073Z,99.90
2023-02-03T23:09:22.587Z,1.00
2023-02-03T23:11:49.263Z,1.00
2023-02-03T23:14:16.877Z,1.00
2023-02-03T23:16:43.565Z,1.00
2023-02-03T23:19:10.072Z,1.00
2023-02-03T23:21:36.602Z,1.00
2023-02-03T23:24:03.225Z,1.00
2023-02-03T23:26:29.734Z,1.00
2023-02-03T23:28:56.247Z,79.00
2023-02-03T23:31:22.885Z,99.90
2023-02-03T23:34:08.182Z,99.90
2023-02-03T23:36:34.739Z,1.00
2023-02-03T23:39:01.251Z,1.00
2023-02-03T23:41:27.756Z,1.00
2023-02-03T23:43:54.238Z,1.00
2023-02-03T23:46:20.791Z,1.00
2023-02-03T23:48:47.376Z,99.90
2023-02-03T23:51:13.858Z,99.90
2023-02-03T23:53:40.391Z,99.90
2023-02-03T23:56:06.932Z,1.00
2023-02-03T23:58:33.501Z,1.00
